createdAt,value
2018-04-22T00:01:54.003Z,10.27
2018-04-22T00:04:22.604Z,10.13
2018-04-22T00:06:51.325Z,10.02
2018-04-22T00:09:20.068Z,10.11
2018-04-22T00:11:48.671Z,10.16
2018-04-22T00:14:17.188Z,10.18
2018-04-22T00:16:46.036Z,10.23
2018-04-22T00:19:14.711Z,10.11
2018-04-22T00:21:43.326Z,10.00
2018-04-22T00:24:12.089Z,10.01
2018-04-22T00:26:40.796Z,10.02
2018-04-22T00:29:09.272Z,10.04
2018-04-22T00:31:37.872Z,10.06
2018-04-22T00:34:06.383Z,9.94
2018-04-22T00:36:34.955Z,9.87
2018-04-22T00:39:03.824Z,9.91
2018-04-22T00:41:32.692Z,9.83
2018-04-22T00:44:01.187Z,9.87
2018-04-22T00:46:29.707Z,9.90
2018-04-22T00:48:58.499Z,9.87
2018-04-22T00:51:27.102Z,9.88
2018-04-22T00:54:04.523Z,9.80
2018-04-22T00:56:33.283Z,9.75
2018-04-22T00:59:01.847Z,9.73
2018-04-22T01:01:30.775Z,9.65
2018-04-22T01:03:59.615Z,9.64
2018-04-22T01:06:28.363Z,9.62
2018-04-22T01:08:56.847Z,9.56
2018-04-22T01:11:25.735Z,9.44
2018-04-22T01:13:54.437Z,9.50
2018-04-22T01:16:23.126Z,9.43
2018-04-22T01:18:51.743Z,9.42
2018-04-22T01:21:20.576Z,9.23
2018-04-22T01:23:49.274Z,9.33
2018-04-22T01:26:18.358Z,9.26
2018-04-22T01:28:47.236Z,9.34
2018-04-22T01:31:15.932Z,9.32
2018-04-22T01:33:44.600Z,9.26
2018-04-22T01:36:13.146Z,9.25
2018-04-22T01:38:41.775Z,9.31
2018-04-22T01:41:10.483Z,9.34
2018-04-22T01:43:39.016Z,9.21
2018-04-22T01:46:07.870Z,9.18
2018-04-22T01:48:36.383Z,9.22
2018-04-22T01:51:05.030Z,9.12
2018-04-22T01:53:33.716Z,9.14
2018-04-22T01:56:02.436Z,9.09
2018-04-22T01:58:31.056Z,9.14
2018-04-22T02:00:59.752Z,9.11
2018-04-22T02:03:28.268Z,9.08
2018-04-22T02:05:57.418Z,9.02
2018-04-22T02:08:25.968Z,9.08
2018-04-22T02:10:54.700Z,9.01
2018-04-22T02:13:23.343Z,9.01
2018-04-22T02:15:52.086Z,9.04
2018-04-22T02:18:20.714Z,8.92
2018-04-22T02:20:49.291Z,8.98
2018-04-22T02:23:18.088Z,8.93
2018-04-22T02:25:46.813Z,8.92
2018-04-22T02:28:15.339Z,8.91
2018-04-22T02:30:44.427Z,8.79
2018-04-22T02:33:12.982Z,8.78
2018-04-22T02:35:41.690Z,8.74
2018-04-22T02:38:10.196Z,8.73
2018-04-22T02:40:39.006Z,8.76
2018-04-22T02:43:07.780Z,8.69
2018-04-22T02:45:36.327Z,8.69
2018-04-22T02:48:05.139Z,8.58
2018-04-22T02:50:40.275Z,8.52
2018-04-22T02:53:08.844Z,8.64
2018-04-22T02:55:38.005Z,8.54
2018-04-22T02:58:06.524Z,8.60
2018-04-22T03:00:35.069Z,8.47
2018-04-22T03:03:03.616Z,8.45
2018-04-22T03:05:32.548Z,8.48
2018-04-22T03:08:01.062Z,8.44
2018-04-22T03:10:29.703Z,8.37
2018-04-22T03:12:58.208Z,8.42
2018-04-22T03:15:26.899Z,8.48
2018-04-22T03:17:55.641Z,8.53
2018-04-22T03:20:24.256Z,8.56
2018-04-22T03:22:52.928Z,8.46
2018-04-22T03:25:21.504Z,8.42
2018-04-22T03:27:50.072Z,8.49
2018-04-22T03:30:18.588Z,8.46
2018-04-22T03:32:47.131Z,8.43
2018-04-22T03:35:15.660Z,8.36
2018-04-22T03:37:44.207Z,8.38
2018-04-22T03:40:12.717Z,8.43
2018-04-22T03:42:41.373Z,8.43
2018-04-22T03:45:09.961Z,8.20
2018-04-22T03:47:38.837Z,8.22
2018-04-22T03:50:07.393Z,8.26
2018-04-22T03:52:36.405Z,8.28
2018-04-22T03:55:05.007Z,8.28
2018-04-22T03:57:34.194Z,8.28
2018-04-22T04:03:05.226Z,8.32
2018-04-22T04:05:33.604Z,8.38
2018-04-22T04:08:02.246Z,8.31
2018-04-22T04:10:30.951Z,8.19
2018-04-22T04:12:59.263Z,8.30
2018-04-22T04:15:27.679Z,8.38
2018-04-22T04:18:02.652Z,8.43
2018-04-22T04:22:45.177Z,8.45
2018-04-22T04:26:33.332Z,8.53
2018-04-22T04:29:01.627Z,8.48
2018-04-22T04:31:29.981Z,8.48
2018-04-22T04:33:58.329Z,8.41
2018-04-22T04:36:26.750Z,8.44
2018-04-22T04:38:55.099Z,8.56
2018-04-22T04:41:23.416Z,8.62
2018-04-22T04:43:51.705Z,8.76
2018-04-22T04:46:20.052Z,8.78
2018-04-22T04:48:48.367Z,8.84
2018-04-22T04:51:16.687Z,8.98
2018-04-22T04:53:45.027Z,9.11
2018-04-22T04:56:13.361Z,9.25
2018-04-22T04:58:41.744Z,9.42
2018-04-22T05:01:10.064Z,9.47
2018-04-22T05:03:38.582Z,9.46
2018-04-22T05:06:06.911Z,9.80
2018-04-22T05:08:35.255Z,10.08
2018-04-22T05:11:03.617Z,10.29
2018-04-22T05:13:31.932Z,10.43
2018-04-22T05:16:00.407Z,10.70
2018-04-22T05:18:28.731Z,10.80
2018-04-22T05:20:57.061Z,10.95
2018-04-22T05:23:25.399Z,11.09
2018-04-22T05:25:54.410Z,11.17
2018-04-22T05:28:22.720Z,11.36
2018-04-22T05:30:51.073Z,11.50
2018-04-22T05:33:19.533Z,11.62
2018-04-22T05:35:47.852Z,11.79
2018-04-22T05:38:16.590Z,11.82
2018-04-22T05:40:44.967Z,12.01
2018-04-22T05:43:13.472Z,12.09
2018-04-22T05:45:41.805Z,12.11
2018-04-22T05:48:10.195Z,12.21
2018-04-22T05:50:38.607Z,12.39
2018-04-22T05:53:06.920Z,12.50
2018-04-22T05:55:35.250Z,12.65
2018-04-22T05:58:03.537Z,12.49
2018-04-22T06:00:31.974Z,12.64
2018-04-22T06:03:00.313Z,12.78
2018-04-22T06:05:28.772Z,12.90
2018-04-22T06:07:57.368Z,12.92
2018-04-22T06:10:25.687Z,13.11
2018-04-22T06:12:53.976Z,13.09
2018-04-22T06:15:22.343Z,13.32
2018-04-22T06:17:50.661Z,13.27
2018-04-22T06:20:19.039Z,13.39
2018-04-22T06:22:47.354Z,13.47
2018-04-22T06:25:15.683Z,13.59
2018-04-22T06:27:44.316Z,13.62
2018-04-22T06:30:12.636Z,13.51
2018-04-22T06:32:40.936Z,13.81
2018-04-22T06:35:09.425Z,13.74
2018-04-22T06:37:37.757Z,13.75
2018-04-22T06:40:06.124Z,13.84
2018-04-22T06:42:34.531Z,14.06
2018-04-22T06:45:02.951Z,14.24
2018-04-22T06:47:31.296Z,14.31
2018-04-22T06:49:59.607Z,14.67
2018-04-22T06:52:28.064Z,14.96
2018-04-22T06:54:56.619Z,14.73
2018-04-22T06:57:25.008Z,15.10
2018-04-22T06:59:53.309Z,15.06
2018-04-22T07:02:21.675Z,15.11
2018-04-22T07:04:50.083Z,15.12
2018-04-22T07:07:18.581Z,15.28
2018-04-22T07:09:47.003Z,15.67
2018-04-22T07:12:15.370Z,15.81
2018-04-22T07:14:43.956Z,15.85
2018-04-22T07:17:12.407Z,15.87
2018-04-22T07:19:40.731Z,15.78
2018-04-22T07:22:10.619Z,15.93
2018-04-22T07:24:41.600Z,15.55
2018-04-22T07:27:12.874Z,15.72
2018-04-22T07:29:41.268Z,16.03
2018-04-22T07:32:09.733Z,16.28
2018-04-22T07:34:38.119Z,16.08
2018-04-22T07:37:06.548Z,16.32
2018-04-22T07:39:34.948Z,16.34
2018-04-22T07:42:03.699Z,16.54
2018-04-22T07:44:32.170Z,16.39
2018-04-22T07:47:00.626Z,16.52
2018-04-22T07:49:29.167Z,16.98
2018-04-22T07:51:57.756Z,17.01
2018-04-22T07:54:26.119Z,16.49
2018-04-22T07:56:54.856Z,16.67
2018-04-22T07:59:23.187Z,16.75
2018-04-22T08:01:51.671Z,16.61
2018-04-22T08:04:19.980Z,16.83
2018-04-22T08:06:48.456Z,16.81
2018-04-22T08:09:16.795Z,17.22
2018-04-22T08:11:45.136Z,17.14
2018-04-22T08:14:13.679Z,17.20
2018-04-22T08:16:42.052Z,17.09
2018-04-22T08:19:10.407Z,17.05
2018-04-22T08:21:39.030Z,17.39
2018-04-22T08:24:07.471Z,17.50
2018-04-22T08:26:36.505Z,17.77
2018-04-22T08:29:04.900Z,17.69
2018-04-22T08:31:33.275Z,18.14
2018-04-22T08:34:01.708Z,18.14
2018-04-22T08:36:30.207Z,18.53
2018-04-22T08:38:58.638Z,18.06
2018-04-22T08:41:27.047Z,18.38
2018-04-22T08:43:55.514Z,18.71
2018-04-22T08:46:24.217Z,18.72
2018-04-22T08:48:52.527Z,19.03
2018-04-22T08:51:20.888Z,18.96
2018-04-22T08:53:49.744Z,19.19
2018-04-22T08:56:18.807Z,18.88
2018-04-22T08:58:47.660Z,19.12
2018-04-22T09:01:15.965Z,19.48
2018-04-22T09:03:44.598Z,19.43
2018-04-22T09:06:13.676Z,19.28
2018-04-22T09:08:42.668Z,19.30
2018-04-22T09:11:11.512Z,19.68
2018-04-22T09:13:39.853Z,19.44
2018-04-22T09:16:08.212Z,19.68
2018-04-22T09:18:38.743Z,19.53
2018-04-22T09:21:07.369Z,19.91
2018-04-22T09:23:35.781Z,19.99
2018-04-22T09:26:04.383Z,19.72
2018-04-22T09:28:32.748Z,19.96
2018-04-22T09:31:01.466Z,20.04
2018-04-22T09:33:30.035Z,20.24
2018-04-22T09:36:00.647Z,20.50
2018-04-22T09:38:28.998Z,20.62
2018-04-22T09:40:57.317Z,20.22
2018-04-22T09:43:25.613Z,20.29
2018-04-22T09:45:53.918Z,20.23
2018-04-22T09:48:22.248Z,20.72
2018-04-22T09:50:50.559Z,20.39
2018-04-22T09:53:20.340Z,20.70
2018-04-22T09:55:48.862Z,21.05
2018-04-22T09:58:17.172Z,20.88
2018-04-22T10:00:47.099Z,21.18
2018-04-22T10:03:16.484Z,20.51
2018-04-22T10:05:48.976Z,21.16
2018-04-22T10:08:17.479Z,21.14
2018-04-22T10:10:45.870Z,21.47
2018-04-22T10:13:14.202Z,21.17
2018-04-22T10:15:42.796Z,21.19
2018-04-22T10:18:11.075Z,21.85
2018-04-22T10:20:39.502Z,22.09
2018-04-22T10:23:08.448Z,21.49
2018-04-22T10:25:37.165Z,21.72
2018-04-22T10:28:05.705Z,21.74
2018-04-22T10:30:34.103Z,22.13
2018-04-22T10:33:02.464Z,22.00
2018-04-22T10:35:30.804Z,22.29
2018-04-22T10:37:59.124Z,22.06
2018-04-22T10:40:27.438Z,22.77
2018-04-22T10:42:56.016Z,23.50
2018-04-22T10:45:24.843Z,23.95
2018-04-22T10:47:53.219Z,23.84
2018-04-22T10:50:21.550Z,24.51
2018-04-22T10:52:49.933Z,24.63
2018-04-22T10:55:18.341Z,24.29
2018-04-22T10:57:46.746Z,24.80
2018-04-22T11:00:15.146Z,25.21
2018-04-22T11:02:43.980Z,25.09
2018-04-22T11:05:12.331Z,25.80
2018-04-22T11:07:40.658Z,26.20
2018-04-22T11:10:09.979Z,26.13
2018-04-22T11:12:38.536Z,26.34
2018-04-22T11:15:06.908Z,26.74
2018-04-22T11:17:35.531Z,27.50
2018-04-22T11:20:03.908Z,26.91
2018-04-22T11:22:32.191Z,25.71
2018-04-22T11:25:00.494Z,26.20
2018-04-22T11:27:28.899Z,26.95
2018-04-22T11:29:57.253Z,26.96
2018-04-22T11:32:25.925Z,27.17
2018-04-22T11:34:54.447Z,27.26
2018-04-22T11:37:22.916Z,27.70
2018-04-22T11:39:51.217Z,27.67
2018-04-22T11:42:19.629Z,28.19
2018-04-22T11:44:47.954Z,28.06
2018-04-22T11:47:16.305Z,28.93
2018-04-22T11:49:45.771Z,28.58
2018-04-22T11:52:14.187Z,29.53
2018-04-22T11:54:42.614Z,28.93
2018-04-22T11:57:11.167Z,29.17
2018-04-22T11:59:39.581Z,29.36
2018-04-22T12:02:08.010Z,28.64
2018-04-22T12:04:36.383Z,27.97
2018-04-22T12:07:05.424Z,29.54
2018-04-22T12:09:33.707Z,29.19
2018-04-22T12:12:02.061Z,29.63
2018-04-22T12:14:30.407Z,28.93
2018-04-22T12:16:58.748Z,28.90
2018-04-22T12:19:27.048Z,29.48
2018-04-22T12:21:55.499Z,31.15
2018-04-22T12:24:26.633Z,31.04
2018-04-22T12:26:55.623Z,31.21
2018-04-22T12:29:24.012Z,30.13
2018-04-22T12:31:52.380Z,30.58
2018-04-22T12:34:20.948Z,31.09
2018-04-22T12:36:50.257Z,30.27
2018-04-22T12:39:18.625Z,30.86
2018-04-22T12:41:47.012Z,31.69
2018-04-22T12:44:15.332Z,31.21
2018-04-22T12:46:43.719Z,30.04
2018-04-22T12:49:12.067Z,30.49
2018-04-22T12:51:40.590Z,30.25
2018-04-22T12:54:08.952Z,31.22
2018-04-22T12:56:37.336Z,31.46
2018-04-22T12:59:05.771Z,32.98
2018-04-22T13:01:34.174Z,32.53
2018-04-22T13:04:02.514Z,32.82
2018-04-22T13:06:30.899Z,33.60
2018-04-22T13:08:59.217Z,33.41
2018-04-22T13:11:27.608Z,33.03
2018-04-22T13:13:55.954Z,33.93
2018-04-22T13:16:24.544Z,33.64
2018-04-22T13:18:53.001Z,32.76
2018-04-22T13:21:21.675Z,32.83
2018-04-22T13:23:50.006Z,32.90
2018-04-22T13:26:18.474Z,33.02
2018-04-22T13:28:46.882Z,33.08
2018-04-22T13:31:15.352Z,32.43
2018-04-22T13:33:43.986Z,33.39
2018-04-22T13:36:12.482Z,33.60
2018-04-22T13:38:40.820Z,32.90
2018-04-22T13:41:09.327Z,31.96
2018-04-22T13:43:37.638Z,32.89
2018-04-22T13:46:06.060Z,33.83
2018-04-22T13:48:34.447Z,32.81
2018-04-22T13:51:04.575Z,32.81
2018-04-22T13:53:33.329Z,32.88
2018-04-22T13:56:02.351Z,32.78
2018-04-22T13:58:30.620Z,33.33
2018-04-22T14:00:59.067Z,32.04
2018-04-22T14:03:28.037Z,32.84
2018-04-22T14:05:56.495Z,33.03
2018-04-22T14:08:24.867Z,32.78
2018-04-22T14:10:53.280Z,32.04
2018-04-22T14:13:21.688Z,32.41
2018-04-22T14:15:50.884Z,30.22
2018-04-22T14:18:19.234Z,28.54
2018-04-22T14:20:47.606Z,27.64
2018-04-22T14:23:15.958Z,30.30
2018-04-22T14:25:44.354Z,30.64
2018-04-22T14:28:12.685Z,31.94
2018-04-22T14:30:41.076Z,29.45
2018-04-22T14:33:09.376Z,27.88
2018-04-22T14:35:37.732Z,28.21
2018-04-22T14:38:06.043Z,27.07
2018-04-22T14:40:34.424Z,27.50
2018-04-22T14:43:02.821Z,27.52
2018-04-22T14:46:12.222Z,26.62
2018-04-22T14:48:49.470Z,26.12
2018-04-22T14:51:18.848Z,25.73
2018-04-22T14:53:47.335Z,26.31
2018-04-22T14:56:15.728Z,26.03
2018-04-22T14:58:44.266Z,26.23
2018-04-22T15:01:12.732Z,25.71
2018-04-22T15:03:41.029Z,26.25
2018-04-22T15:06:09.364Z,26.22
2018-04-22T15:08:37.727Z,25.97
2018-04-22T15:11:06.151Z,25.58
2018-04-22T15:13:34.499Z,25.51
2018-04-22T15:16:02.860Z,25.84
2018-04-22T15:18:31.176Z,25.36
2018-04-22T15:20:59.538Z,25.00
2018-04-22T15:23:28.724Z,25.11
2018-04-22T15:25:57.213Z,24.77
2018-04-22T15:28:25.540Z,24.48
2018-04-22T15:30:53.881Z,24.66
2018-04-22T15:33:22.183Z,24.16
2018-04-22T15:35:50.528Z,24.53
2018-04-22T15:38:18.943Z,24.44
2018-04-22T15:40:47.293Z,24.52
2018-04-22T15:43:15.781Z,24.14
2018-04-22T15:45:44.199Z,24.41
2018-04-22T15:48:12.561Z,24.20
2018-04-22T15:50:40.939Z,24.02
2018-04-22T15:53:09.236Z,24.34
2018-04-22T15:55:38.277Z,24.39
2018-04-22T15:58:06.945Z,24.18
2018-04-22T16:00:35.545Z,24.12
2018-04-22T16:03:04.291Z,24.28
2018-04-22T16:05:32.724Z,24.16
2018-04-22T16:08:01.095Z,24.58
2018-04-22T16:10:30.238Z,24.34
2018-04-22T16:12:58.547Z,24.50
2018-04-22T16:15:27.231Z,24.35
2018-04-22T16:17:55.772Z,24.28
2018-04-22T16:20:24.128Z,24.24
2018-04-22T16:22:52.411Z,23.86
2018-04-22T16:25:20.826Z,23.70
2018-04-22T16:27:49.117Z,23.65
2018-04-22T16:30:17.516Z,23.63
2018-04-22T16:32:46.207Z,23.81
2018-04-22T16:35:14.562Z,23.68
2018-04-22T16:37:42.852Z,23.51
2018-04-22T16:40:11.489Z,23.40
2018-04-22T16:42:40.644Z,23.39
2018-04-22T16:45:09.103Z,23.48
2018-04-22T16:47:37.528Z,23.21
2018-04-22T16:50:05.942Z,23.18
2018-04-22T16:52:34.289Z,23.16
2018-04-22T16:55:02.653Z,23.15
2018-04-22T16:58:34.136Z,22.86
2018-04-22T17:01:02.557Z,22.98
2018-04-22T17:03:30.879Z,23.03
2018-04-22T17:05:59.252Z,22.77
2018-04-22T17:08:27.622Z,22.76
2018-04-22T17:10:56.000Z,22.93
2018-04-22T17:13:24.276Z,22.89
2018-04-22T17:15:52.588Z,22.76
2018-04-22T17:18:20.864Z,22.35
2018-04-22T17:20:49.203Z,22.51
2018-04-22T17:23:17.477Z,22.65
2018-04-22T17:25:45.847Z,22.63
2018-04-22T17:28:14.161Z,22.55
2018-04-22T17:31:45.157Z,22.50
2018-04-22T17:34:13.549Z,22.38
2018-04-22T17:36:42.199Z,22.03
2018-04-22T17:39:10.515Z,21.87
2018-04-22T17:41:38.840Z,21.82
2018-04-22T17:44:07.124Z,21.75
2018-04-22T17:46:35.465Z,21.57
2018-04-22T17:49:03.740Z,21.51
2018-04-22T17:51:32.129Z,21.43
2018-04-22T17:54:00.575Z,21.36
2018-04-22T17:56:29.167Z,21.23
2018-04-22T17:58:57.457Z,21.24
2018-04-22T18:01:25.827Z,21.18
2018-04-22T18:03:54.279Z,21.01
2018-04-22T18:06:22.877Z,20.91
2018-04-22T18:08:57.950Z,20.79
2018-04-22T18:11:26.827Z,20.74
2018-04-22T18:13:55.095Z,20.86
2018-04-22T18:16:23.498Z,20.75
2018-04-22T18:18:51.937Z,20.67
2018-04-22T18:21:20.359Z,20.70
2018-04-22T18:26:23.223Z,20.54
2018-04-22T18:28:53.229Z,20.33
2018-04-22T18:31:21.938Z,20.29
2018-04-22T18:33:50.519Z,20.27
2018-04-22T18:36:19.011Z,20.24
2018-04-22T18:38:47.296Z,20.23
2018-04-22T18:41:15.767Z,20.21
2018-04-22T18:43:44.755Z,20.21
2018-04-22T18:46:13.463Z,20.17
2018-04-22T18:48:41.769Z,20.05
2018-04-22T18:51:10.095Z,19.93
2018-04-22T18:53:38.424Z,19.92
2018-04-22T18:56:07.157Z,19.75
2018-04-22T18:58:35.520Z,19.75
2018-04-22T19:01:03.892Z,19.76
2018-04-22T19:03:32.375Z,19.74
2018-04-22T19:06:00.757Z,19.67
2018-04-22T19:08:29.073Z,19.54
2018-04-22T19:10:57.448Z,19.55
2018-04-22T19:14:28.493Z,19.47
2018-04-22T19:16:58.094Z,19.42
2018-04-22T19:19:26.543Z,19.37
2018-04-22T19:21:54.888Z,19.28
2018-04-22T19:24:23.246Z,19.34
2018-04-22T19:26:51.644Z,19.29
2018-04-22T19:29:19.992Z,19.35
2018-04-22T19:31:48.376Z,19.42
2018-04-22T19:34:16.671Z,19.39
2018-04-22T19:36:45.019Z,19.34
2018-04-22T19:39:13.356Z,19.35
2018-04-22T19:41:41.717Z,19.30
2018-04-22T19:44:10.439Z,19.26
2018-04-22T19:46:38.839Z,19.25
2018-04-22T19:49:07.190Z,19.17
2018-04-22T19:51:35.574Z,19.08
2018-04-22T19:54:04.090Z,18.93
2018-04-22T19:56:32.703Z,18.87
2018-04-22T19:59:01.013Z,18.88
2018-04-22T20:01:29.409Z,18.89
2018-04-22T20:03:58.191Z,18.74
2018-04-22T20:06:26.527Z,18.72
2018-04-22T20:08:54.849Z,18.14
2018-04-22T20:11:23.240Z,17.83
2018-04-22T20:13:51.547Z,17.64
2018-04-22T20:16:19.879Z,17.88
2018-04-22T20:18:48.177Z,17.64
2018-04-22T20:21:16.832Z,17.49
2018-04-22T20:23:45.132Z,17.44
2018-04-22T20:26:13.748Z,17.35
2018-04-22T20:28:42.434Z,17.34
2018-04-22T20:31:13.428Z,17.56
2018-04-22T20:33:42.359Z,17.29
2018-04-22T20:36:10.680Z,17.44
2018-04-22T20:38:39.020Z,17.33
2018-04-22T20:42:10.185Z,17.19
2018-04-22T20:44:38.567Z,17.04
2018-04-22T20:47:06.992Z,17.00
2018-04-22T20:49:35.298Z,17.03
2018-04-22T20:52:03.743Z,16.97
2018-04-22T20:54:32.051Z,16.94
2018-04-22T20:57:00.511Z,16.99
2018-04-22T20:59:28.930Z,16.89
2018-04-22T21:01:57.292Z,16.92
2018-04-22T21:04:25.600Z,17.15
2018-04-22T21:06:53.935Z,17.35
2018-04-22T21:09:22.265Z,18.65
2018-04-22T21:11:50.660Z,18.90
2018-04-22T21:14:19.235Z,18.68
2018-04-22T21:16:47.579Z,18.69
2018-04-22T21:19:15.859Z,18.83
2018-04-22T21:21:44.180Z,19.11
2018-04-22T21:24:12.471Z,19.12
2018-04-22T21:26:40.844Z,19.12
2018-04-22T21:29:09.414Z,19.04
2018-04-22T21:31:37.836Z,19.10
2018-04-22T21:34:07.554Z,19.22
2018-04-22T21:36:36.541Z,19.04
2018-04-22T21:39:05.473Z,19.10
2018-04-22T21:41:33.792Z,18.99
2018-04-22T21:44:02.181Z,19.18
2018-04-22T21:46:30.808Z,19.57
2018-04-22T21:48:59.127Z,19.65
2018-04-22T21:51:30.912Z,19.60
2018-04-22T21:54:05.867Z,19.63
2018-04-22T21:56:34.604Z,19.53
2018-04-22T21:59:03.564Z,19.43
2018-04-22T22:01:31.986Z,19.49
2018-04-22T22:04:00.356Z,19.61
2018-04-22T22:06:28.701Z,19.53
2018-04-22T22:08:57.029Z,19.55
2018-04-22T22:11:25.452Z,19.48
2018-04-22T22:13:53.772Z,19.28
2018-04-22T22:16:22.422Z,19.18
2018-04-22T22:18:50.820Z,19.12
2018-04-22T22:21:19.588Z,18.97
2018-04-22T22:23:47.911Z,18.84
2018-04-22T22:26:16.266Z,18.87
2018-04-22T22:28:44.604Z,18.73
2018-04-22T22:31:13.020Z,18.43
2018-04-22T22:33:41.315Z,18.40
2018-04-22T22:36:09.781Z,18.43
2018-04-22T22:38:38.085Z,18.34
2018-04-22T22:41:06.417Z,18.51
2018-04-22T22:43:34.708Z,18.46
2018-04-22T22:46:03.015Z,18.29
2018-04-22T22:48:31.330Z,18.15
2018-04-22T22:51:00.112Z,18.33
2018-04-22T22:53:28.698Z,18.21
2018-04-22T22:55:57.528Z,18.39
2018-04-22T22:58:25.827Z,18.28
2018-04-22T23:00:54.160Z,18.05
2018-04-22T23:03:22.439Z,17.83
2018-04-22T23:05:50.824Z,17.76
2018-04-22T23:08:19.163Z,17.93
2018-04-22T23:10:47.487Z,17.93
2018-04-22T23:13:15.795Z,17.91
2018-04-22T23:15:44.140Z,17.86
2018-04-22T23:18:12.456Z,17.89
2018-04-22T23:20:40.803Z,17.89
2018-04-22T23:23:09.160Z,17.84
2018-04-22T23:25:37.564Z,17.87
2018-04-22T23:28:05.895Z,17.92
2018-04-22T23:30:34.246Z,17.98
2018-04-22T23:33:02.549Z,17.97
2018-04-22T23:35:30.940Z,17.99
2018-04-22T23:38:00.560Z,17.98
2018-04-22T23:40:28.892Z,18.00
2018-04-22T23:42:57.200Z,17.98
2018-04-22T23:45:25.511Z,17.98
2018-04-22T23:47:53.847Z,17.98
2018-04-22T23:50:22.488Z,17.94
2018-04-22T23:52:50.810Z,17.95
2018-04-22T23:55:19.164Z,17.95
2018-04-22T23:57:47.495Z,17.93
